Time;durP1;ratioP1;P1;durP2;ratioP2;P2;SDS_P1;SDS_P2;PMS_P1;PMS_P2;Temp;Humidity;BMP_temperature;BMP_pressure;BME280_temperature;BME280_humidity;BME280_pressure;Samples;Min_cycle;Max_cycle;Signal;HPM_P1;HPM_P2
2023/10/22 00:01:47;;;;;;;7.23;2.17;;;;;;;22.74;59.72;98881.31;4995933;28;20192;-90
2023/10/22 00:04:13;;;;;;;6.03;2.53;;;;;;;22.91;59.23;98895.53;5004555;28;20561;-89
2023/10/22 00:06:38;;;;;;;5.10;2.20;;;;;;;22.99;58.73;98899.06;5013447;28;20588;-90
2023/10/22 00:09:03;;;;;;;3.60;2.00;;;;;;;23.04;58.80;98903.91;4982751;28;20257;-90
2023/10/22 00:11:29;;;;;;;6.37;2.20;;;;;;;23.13;58.76;98905.59;4975584;28;20165;-89
2023/10/22 00:13:54;;;;;;;5.73;2.00;;;;;;;22.96;59.30;98901.22;4978546;28;20184;-89
2023/10/22 00:16:20;;;;;;;11.40;3.10;;;;;;;22.83;60.14;98900.84;4975463;28;20231;-91
2023/10/22 00:18:45;;;;;;;8.03;2.30;;;;;;;22.67;60.73;98898.16;4975440;28;20195;-88
2023/10/22 00:21:10;;;;;;;5.80;2.53;;;;;;;22.56;61.47;98901.94;4972049;28;20195;-90
2023/10/22 00:23:36;;;;;;;8.57;2.60;;;;;;;22.52;61.71;98897.91;4977468;28;20218;-88
2023/10/22 00:26:02;;;;;;;7.97;2.53;;;;;;;22.31;62.86;98895.66;4994765;28;20179;-89
2023/10/22 00:28:27;;;;;;;5.27;2.40;;;;;;;22.22;63.24;98901.94;4994508;28;20213;-87
2023/10/22 00:30:53;;;;;;;5.13;2.57;;;;;;;22.09;63.90;98893.53;4994550;28;20233;-88
2023/10/22 00:33:18;;;;;;;4.90;1.93;;;;;;;22.12;64.23;98898.56;4994335;28;20198;-87
2023/10/22 00:35:54;;;;;;;11.77;2.57;;;;;;;22.04;64.49;98904.69;4977320;28;20191;-88
2023/10/22 00:38:19;;;;;;;6.03;2.63;;;;;;;22.22;64.00;98912.63;4994345;28;20198;-89
2023/10/22 00:40:44;;;;;;;10.57;2.97;;;;;;;22.15;64.22;98913.41;4994325;28;20696;-88
2023/10/22 00:43:10;;;;;;;5.17;2.70;;;;;;;22.07;64.35;98911.53;4977536;28;20648;-88
2023/10/22 00:45:37;;;;;;;6.43;2.10;;;;;;;21.93;65.35;98902.28;4977048;28;20185;-86
2023/10/22 00:48:03;;;;;;;6.63;2.83;;;;;;;21.69;66.49;98911.94;4973939;28;20188;-88
2023/10/22 00:50:29;;;;;;;3.33;2.07;;;;;;;21.68;66.91;98911.09;4973910;28;20188;-88
2023/10/22 00:52:55;;;;;;;10.77;2.67;;;;;;;21.70;66.88;98914.44;4992337;28;20266;-86
2023/10/22 00:55:21;;;;;;;6.00;2.70;;;;;;;21.77;66.81;98920.00;4994013;28;20656;-89
2023/10/22 00:57:47;;;;;;;4.80;2.10;;;;;;;21.88;66.27;98923.28;4994061;28;20232;-90
2023/10/22 01:00:13;;;;;;;9.03;2.57;;;;;;;21.93;66.40;98920.16;4976915;28;20191;-88
2023/10/22 01:02:39;;;;;;;6.00;2.53;;;;;;;21.98;65.84;98917.84;4994082;28;20176;-89
2023/10/22 01:05:08;;;;;;;6.17;2.20;;;;;;;22.13;65.55;98916.25;4993944;28;20203;-89
2023/10/22 01:07:34;;;;;;;5.00;2.40;;;;;;;22.22;65.41;98925.97;4976977;28;20182;-90
2023/10/22 01:09:59;;;;;;;7.27;2.43;;;;;;;22.13;65.40;98915.41;4993680;28;20196;-91
2023/10/22 01:12:34;;;;;;;5.30;2.13;;;;;;;22.32;64.73;98913.34;4994053;28;20514;-90
2023/10/22 01:14:59;;;;;;;7.77;2.40;;;;;;;22.26;65.18;98905.97;4994319;28;20175;-87
2023/10/22 01:17:25;;;;;;;8.53;3.40;;;;;;;21.96;66.03;98911.81;4994117;28;20551;-88
2023/10/22 01:19:50;;;;;;;7.40;2.50;;;;;;;21.94;66.43;98911.97;4976927;28;20184;-88
2023/10/22 01:22:16;;;;;;;7.83;2.47;;;;;;;22.07;66.23;98905.34;4976544;28;20179;-87
2023/10/22 01:24:41;;;;;;;7.73;2.47;;;;;;;22.18;65.86;98897.09;4993762;28;20190;-89
2023/10/22 01:27:06;;;;;;;6.63;2.80;;;;;;;22.11;65.73;98901.41;4992685;28;20187;-88
2023/10/22 01:29:32;;;;;;;9.13;3.03;;;;;;;22.35;64.82;98897.00;4993190;28;20183;-87
2023/10/22 01:31:57;;;;;;;9.00;2.40;;;;;;;22.30;64.85;98901.97;4993753;28;20254;-90
2023/10/22 01:34:23;;;;;;;6.70;2.70;;;;;;;22.31;65.27;98903.66;4976307;28;20183;-89
2023/10/22 01:36:48;;;;;;;5.60;2.17;;;;;;;22.31;65.32;98898.31;4993763;28;20238;-90
2023/10/22 01:39:14;;;;;;;5.97;2.43;;;;;;;22.39;65.03;98903.69;4976551;28;20238;-90
2023/10/22 01:41:41;;;;;;;4.70;2.33;;;;;;;22.54;64.41;98909.25;4993854;28;20198;-90
2023/10/22 01:44:07;;;;;;;5.77;2.40;;;;;;;22.45;64.43;98889.72;4993643;28;20222;-89
2023/10/22 01:46:32;;;;;;;4.33;2.20;;;;;;;22.40;64.50;98896.53;4993622;28;20195;-88
2023/10/22 01:48:58;;;;;;;5.77;2.33;;;;;;;22.51;64.29;98902.41;4976620;28;20187;-90
2023/10/22 01:51:23;;;;;;;13.23;2.97;;;;;;;22.76;63.33;98915.88;4976743;28;20183;-90
2023/10/22 01:53:49;;;;;;;9.77;2.53;;;;;;;22.92;62.90;98914.09;4992835;28;20184;-91
2023/10/22 01:56:15;;;;;;;9.00;3.00;;;;;;;22.94;62.79;98916.59;4993772;28;20222;-90
2023/10/22 01:58:40;;;;;;;4.33;2.10;;;;;;;23.09;61.98;98920.28;4994013;28;20551;-91
2023/10/22 02:01:06;;;;;;;5.57;2.47;;;;;;;23.14;61.79;98916.13;4996201;28;20190;-91
2023/10/22 02:03:35;;;;;;;10.23;2.93;;;;;;;23.18;61.28;98921.97;5012664;28;20183;-91
2023/10/22 02:06:01;;;;;;;5.07;2.40;;;;;;;23.22;61.17;98912.63;4996354;28;20183;-91
2023/10/22 02:08:26;;;;;;;8.43;2.20;;;;;;;23.24;60.93;98907.97;4996198;28;20187;-91
2023/10/22 02:10:52;;;;;;;5.80;2.17;;;;;;;23.11;61.61;98908.44;4976596;28;20206;-91
2023/10/22 02:13:17;;;;;;;6.97;2.80;;;;;;;23.09;61.75;98915.78;4976651;28;20188;-91
2023/10/22 02:15:43;;;;;;;9.57;2.30;;;;;;;22.98;62.25;98909.94;4993503;28;20267;-90
2023/10/22 02:18:09;;;;;;;7.90;2.77;;;;;;;22.95;62.44;98918.28;4976460;28;20208;-92
2023/10/22 02:20:34;;;;;;;8.03;2.47;;;;;;;22.95;62.55;98918.28;4976484;28;20547;-88
2023/10/22 02:23:01;;;;;;;7.10;2.33;;;;;;;22.99;62.36;98924.94;4976365;28;20279;-92
2023/10/22 02:25:27;;;;;;;7.20;3.20;;;;;;;22.99;62.44;98924.94;4976397;28;20626;-89
2023/10/22 02:27:53;;;;;;;7.30;2.47;;;;;;;23.00;62.81;98915.94;4976358;28;20259;-88
2023/10/22 02:30:19;;;;;;;4.40;2.13;;;;;;;22.73;63.93;98913.53;4993746;28;20652;-88
2023/10/22 02:32:44;;;;;;;9.57;3.00;;;;;;;22.66;64.17;98915.19;4993324;28;20172;-90
2023/10/22 02:35:10;;;;;;;10.53;2.70;;;;;;;22.75;63.75;98922.22;4995463;28;20253;-92
2023/10/22 02:37:36;;;;;;;4.70;2.47;;;;;;;22.88;63.39;98939.47;4979990;28;20270;-92
2023/10/22 02:40:03;;;;;;;6.73;2.63;;;;;;;22.97;63.06;98932.31;4980355;28;20188;-91
2023/10/22 02:42:29;;;;;;;6.43;2.63;;;;;;;23.00;62.77;98921.28;4979817;28;20191;-90
2023/10/22 02:44:55;;;;;;;6.60;2.37;;;;;;;23.00;62.68;98910.59;4979721;28;20184;-89
2023/10/22 02:47:21;;;;;;;5.80;2.10;;;;;;;22.76;63.81;98902.50;4996426;28;20184;-89
2023/10/22 02:49:46;;;;;;;8.83;2.60;;;;;;;22.84;63.58;98899.88;4996729;28;20195;-89
2023/10/22 02:52:12;;;;;;;7.70;2.60;;;;;;;23.02;62.94;98913.94;4996730;28;20642;-92
2023/10/22 02:54:37;;;;;;;5.47;2.60;;;;;;;23.05;62.63;98925.16;4977714;28;20207;-93
2023/10/22 02:57:03;;;;;;;6.60;2.70;;;;;;;22.95;62.76;98903.06;4960135;28;20211;-87
2023/10/22 02:59:29;;;;;;;8.03;2.77;;;;;;;22.43;64.97;98870.31;4991894;28;20176;-86
2023/10/22 03:01:54;;;;;;;5.60;2.40;;;;;;;22.44;65.00;98874.66;4996566;28;20168;-91
2023/10/22 03:04:20;;;;;;;9.67;3.07;;;;;;;22.85;63.41;98896.19;4979312;28;20679;-90
2023/10/22 03:06:45;;;;;;;8.27;3.00;;;;;;;22.87;63.35;98903.06;4996717;28;20174;-89
2023/10/22 03:09:13;;;;;;;7.17;2.40;;;;;;;22.82;63.33;98885.84;4996061;28;20230;-89
2023/10/22 03:11:38;;;;;;;9.27;2.50;;;;;;;22.86;63.13;98903.19;4997192;28;20172;-93
2023/10/22 03:14:05;;;;;;;5.80;2.53;;;;;;;22.99;62.42;98908.91;4980305;28;20201;-92
2023/10/22 03:16:30;;;;;;;5.87;2.13;;;;;;;23.07;62.24;98917.78;4979261;28;20215;-91
2023/10/22 03:18:56;;;;;;;5.60;2.23;;;;;;;23.06;62.24;98929.47;4979338;28;20740;-90
2023/10/22 03:21:24;;;;;;;6.27;2.47;;;;;;;22.99;62.00;98914.25;4979156;28;20198;-88
2023/10/22 03:23:49;;;;;;;7.40;3.30;;;;;;;22.87;62.90;98918.25;4978877;28;20278;-91
2023/10/22 03:26:16;;;;;;;4.23;1.90;;;;;;;23.18;61.75;98921.97;4978824;28;20539;-90
2023/10/22 03:28:42;;;;;;;3.53;1.90;;;;;;;23.32;61.23;98921.34;4978964;28;20195;-91
2023/10/22 03:31:08;;;;;;;8.30;2.70;;;;;;;23.36;61.23;98925.34;4979125;28;20175;-92
2023/10/22 03:33:34;;;;;;;5.73;2.37;;;;;;;23.37;61.11;98932.41;4979136;28;20194;-89
2023/10/22 03:36:00;;;;;;;10.93;2.93;;;;;;;23.37;61.06;98926.22;4995767;28;20199;-91
2023/10/22 03:38:26;;;;;;;6.40;2.57;;;;;;;23.23;61.83;98925.00;4995807;28;20570;-91
2023/10/22 03:40:58;;;;;;;4.90;2.27;;;;;;;23.27;61.72;98920.16;4962246;28;20192;-89
2023/10/22 03:43:29;;;;;;;8.00;2.60;;;;;;;23.16;62.19;98922.16;4959435;28;20635;-90
2023/10/22 03:45:55;;;;;;;3.97;1.90;;;;;;;23.25;61.63;98915.81;4958572;28;20176;-92
2023/10/22 03:48:22;;;;;;;9.10;2.30;;;;;;;23.31;61.42;98916.13;4978251;28;20272;-92
2023/10/22 03:50:47;;;;;;;7.43;2.50;;;;;;;23.36;61.17;98911.97;4978798;28;20222;-91
2023/10/22 03:53:13;;;;;;;5.00;2.43;;;;;;;23.34;61.12;98916.66;4978487;28;20211;-93
2023/10/22 03:55:39;;;;;;;6.47;2.50;;;;;;;23.40;60.95;98921.34;4996046;28;20204;-94
2023/10/22 03:58:04;;;;;;;6.93;2.47;;;;;;;23.46;60.68;98934.06;4965911;28;20286;-91
2023/10/22 04:00:29;;;;;;;10.77;2.60;;;;;;;23.53;60.32;98929.72;4978489;28;20180;-89
2023/10/22 04:02:55;;;;;;;6.73;2.60;;;;;;;23.49;60.47;98935.56;4995528;28;20242;-91
2023/10/22 04:05:20;;;;;;;5.47;2.30;;;;;;;23.40;60.87;98931.25;4978495;28;20188;-88
2023/10/22 04:07:47;;;;;;;7.23;2.30;;;;;;;23.43;60.77;98920.19;4995607;28;20175;-92
2023/10/22 04:10:15;;;;;;;3.97;2.30;;;;;;;23.23;61.43;98931.19;4995386;28;20223;-89
2023/10/22 04:12:40;;;;;;;5.83;2.90;;;;;;;22.97;62.31;98917.09;4995603;28;20660;-91
2023/10/22 04:15:06;;;;;;;6.63;2.40;;;;;;;22.94;62.79;98917.44;4978014;28;20184;-88
2023/10/22 04:17:32;;;;;;;11.33;3.30;;;;;;;22.98;62.68;98916.09;4977876;28;20298;-90
2023/10/22 04:19:57;;;;;;;4.03;2.10;;;;;;;22.93;62.97;98915.75;4995172;28;20234;-89
2023/10/22 04:22:23;;;;;;;6.73;2.47;;;;;;;22.85;63.39;98921.06;4995235;28;20179;-89
2023/10/22 04:24:48;;;;;;;7.03;2.23;;;;;;;22.70;63.77;98924.53;4994856;28;20187;-91
2023/10/22 04:27:14;;;;;;;8.40;2.77;;;;;;;22.69;63.86;98922.88;4977782;28;20175;-90
2023/10/22 04:29:39;;;;;;;4.03;2.00;;;;;;;22.61;64.75;98929.00;4994999;28;20238;-91
2023/10/22 04:32:05;;;;;;;6.80;2.97;;;;;;;22.58;64.66;98924.81;4994604;28;20307;-88
2023/10/22 04:34:35;;;;;;;5.20;2.50;;;;;;;22.67;64.75;98919.53;4977205;28;20202;-89
2023/10/22 04:37:01;;;;;;;5.63;2.67;;;;;;;22.62;64.75;98914.63;4977227;28;20204;-89
2023/10/22 04:39:26;;;;;;;12.03;3.40;;;;;;;22.65;64.52;98917.00;4994337;28;20190;-87
2023/10/22 04:41:52;;;;;;;7.70;2.73;;;;;;;22.71;64.56;98919.03;4994856;28;20187;-90
2023/10/22 04:44:17;;;;;;;5.53;2.50;;;;;;;22.88;64.00;98922.56;4977413;28;20579;-87
2023/10/22 04:46:43;;;;;;;8.53;2.40;;;;;;;22.99;63.78;98924.94;4994536;28;20234;-89
2023/10/22 04:49:08;;;;;;;6.20;2.47;;;;;;;22.91;63.42;98917.75;4994406;28;20202;-90
2023/10/22 04:51:36;;;;;;;9.03;2.70;;;;;;;22.96;63.65;98925.28;4977056;28;20187;-89
2023/10/22 04:54:02;;;;;;;7.77;2.77;;;;;;;22.73;64.69;98917.03;4977094;28;20610;-86
2023/10/22 04:56:28;;;;;;;7.60;3.30;;;;;;;22.54;65.81;98925.28;4994234;28;20203;-89
2023/10/22 04:58:53;;;;;;;7.27;2.50;;;;;;;22.41;66.83;98925.72;4993924;28;20184;-89
2023/10/22 05:01:19;;;;;;;7.00;3.27;;;;;;;22.35;67.37;98918.34;4994134;28;20194;-86
2023/10/22 05:03:44;;;;;;;6.97;2.70;;;;;;;22.30;67.37;98917.19;4994312;28;20210;-86
2023/10/22 05:06:10;;;;;;;5.20;2.53;;;;;;;22.32;67.46;98918.69;4992807;28;20198;-89
2023/10/22 05:08:36;;;;;;;8.27;2.83;;;;;;;22.06;68.78;98915.22;4976864;28;20337;-87
2023/10/22 05:11:05;;;;;;;7.17;2.10;;;;;;;22.00;69.03;98918.53;4993835;28;20204;-89
2023/10/22 05:13:31;;;;;;;12.63;2.90;;;;;;;21.96;69.63;98922.47;4994069;28;20637;-86
2023/10/22 05:15:57;;;;;;;7.43;2.63;;;;;;;21.81;69.98;98932.88;4993941;28;20186;-88
2023/10/22 05:18:22;;;;;;;4.67;2.80;;;;;;;21.94;69.60;98940.50;4993814;28;20212;-88
2023/10/22 05:20:48;;;;;;;8.10;3.53;;;;;;;22.15;68.83;98956.97;4993712;28;20660;-90
2023/10/22 05:23:15;;;;;;;11.43;3.00;;;;;;;22.28;68.44;98946.69;4993802;28;20535;-89
2023/10/22 05:25:41;;;;;;;7.87;3.20;;;;;;;22.20;68.45;98948.47;4993666;28;20540;-88
2023/10/22 05:28:07;;;;;;;13.47;3.17;;;;;;;22.06;68.66;98944.59;4993779;28;20223;-87
2023/10/22 05:30:32;;;;;;;5.43;2.50;;;;;;;22.08;68.98;98947.09;4993737;28;20595;-88
2023/10/22 05:32:58;;;;;;;6.33;3.00;;;;;;;22.18;68.50;98962.00;4994121;28;20191;-87
2023/10/22 05:35:23;;;;;;;13.30;3.20;;;;;;;22.24;68.79;98963.22;4993676;28;20633;-87
2023/10/22 05:37:51;;;;;;;5.83;3.00;;;;;;;22.29;68.22;98960.91;4976517;28;20212;-87
2023/10/22 05:40:16;;;;;;;10.30;2.73;;;;;;;22.45;67.16;98974.34;4993532;28;20188;-89
2023/10/22 05:42:42;;;;;;;6.73;2.93;;;;;;;22.60;66.51;98981.59;4993622;28;20172;-88
2023/10/22 05:45:08;;;;;;;7.87;2.97;;;;;;;22.78;66.20;98988.69;4976333;28;20605;-89
2023/10/22 05:47:33;;;;;;;6.10;2.87;;;;;;;22.85;65.77;98995.09;4977314;28;20184;-88
2023/10/22 05:49:59;;;;;;;9.63;2.37;;;;;;;22.87;65.85;99001.13;4993555;28;20233;-90
2023/10/22 05:52:26;;;;;;;5.73;2.80;;;;;;;22.99;65.41;98999.81;4976454;28;20283;-88
2023/10/22 05:54:52;;;;;;;6.80;2.50;;;;;;;22.93;65.22;98987.09;4993574;28;20188;-88
2023/10/22 05:57:20;;;;;;;9.43;3.00;;;;;;;22.89;65.35;98993.75;4993551;28;20619;-88
2023/10/22 05:59:46;;;;;;;5.27;2.60;;;;;;;22.93;65.19;99003.16;4993557;28;20286;-88
2023/10/22 06:02:12;;;;;;;6.47;2.40;;;;;;;22.86;65.19;98994.06;4993496;28;20183;-87
2023/10/22 06:04:37;;;;;;;8.10;2.77;;;;;;;22.76;65.81;98985.34;4976329;28;20180;-90
2023/10/22 06:07:04;;;;;;;6.03;2.50;;;;;;;22.76;65.75;98991.53;4976317;28;20176;-88
2023/10/22 06:09:29;;;;;;;7.87;2.90;;;;;;;22.62;66.19;98982.28;4998503;28;20215;-88
2023/10/22 06:11:55;;;;;;;7.23;3.00;;;;;;;22.64;66.46;98979.47;4999482;28;20186;-89
2023/10/22 06:14:20;;;;;;;10.33;3.00;;;;;;;22.71;65.83;98974.31;5016808;28;20213;-89
2023/10/22 06:16:46;;;;;;;8.27;3.00;;;;;;;22.63;66.09;98972.44;4999203;28;20210;-88
2023/10/22 06:19:13;;;;;;;6.23;2.40;;;;;;;22.69;65.59;98973.66;5016468;28;20198;-89
2023/10/22 06:21:38;;;;;;;8.07;2.87;;;;;;;22.61;65.94;98974.41;4999282;28;20187;-88
2023/10/22 06:24:05;;;;;;;8.90;2.73;;;;;;;22.71;65.64;98968.97;4999282;28;20266;-87
2023/10/22 06:26:30;;;;;;;7.03;3.07;;;;;;;22.69;65.90;98979.00;5016560;28;20206;-86
2023/10/22 06:28:56;;;;;;;9.70;3.33;;;;;;;22.73;65.30;98973.16;5017020;28;20248;-88
2023/10/22 06:31:23;;;;;;;4.97;3.07;;;;;;;22.67;65.63;98972.97;5017041;28;20190;-88
2023/10/22 06:33:48;;;;;;;7.10;2.37;;;;;;;22.76;65.63;98972.00;5016655;28;20187;-87
2023/10/22 06:36:15;;;;;;;8.23;3.57;;;;;;;22.49;66.47;98965.00;5015886;28;20198;-88
2023/10/22 06:38:42;;;;;;;4.90;2.60;;;;;;;22.63;66.27;98953.75;5016276;28;20232;-89
2023/10/22 06:41:15;;;;;;;7.53;3.43;;;;;;;22.75;65.38;98956.94;5016078;28;20308;-88
2023/10/22 06:43:41;;;;;;;6.40;3.53;;;;;;;22.83;65.72;98954.31;5016388;28;20175;-87
2023/10/22 06:46:06;;;;;;;8.23;2.83;;;;;;;22.99;64.76;98957.03;5016062;28;20193;-89
2023/10/22 06:48:32;;;;;;;8.33;2.87;;;;;;;23.17;64.72;98971.09;5016120;28;20193;-89
2023/10/22 06:50:57;;;;;;;6.47;2.23;;;;;;;23.43;63.31;98966.50;5016013;28;20222;-88
2023/10/22 06:53:23;;;;;;;6.83;2.80;;;;;;;23.38;63.53;98970.66;5016282;28;20179;-88
2023/10/22 06:55:48;;;;;;;9.13;2.67;;;;;;;23.50;62.68;98974.72;5018519;28;20208;-89
2023/10/22 06:58:14;;;;;;;10.73;3.67;;;;;;;23.71;62.57;98975.91;5031053;28;20691;-88
2023/10/22 07:00:39;;;;;;;8.37;3.23;;;;;;;23.94;61.59;98970.69;5016135;28;20171;-90
2023/10/22 07:03:05;;;;;;;6.07;2.50;;;;;;;24.09;60.92;98957.47;5015776;28;20252;-89
2023/10/22 07:05:31;;;;;;;9.77;2.80;;;;;;;24.09;61.16;98973.53;5002733;28;20342;-86
2023/10/22 07:07:57;;;;;;;6.07;2.57;;;;;;;24.28;60.56;98965.13;5009357;28;20705;-90
2023/10/22 07:10:23;;;;;;;9.90;2.70;;;;;;;24.47;59.59;98967.44;4989267;28;20199;-89
2023/10/22 07:12:49;;;;;;;8.00;3.03;;;;;;;24.60;59.24;98954.31;5004203;28;20529;-91
2023/10/22 07:15:14;;;;;;;8.47;3.00;;;;;;;24.67;58.91;98966.00;5003354;28;20180;-89
2023/10/22 07:17:43;;;;;;;9.17;2.17;;;;;;;24.77;58.65;98958.59;5003458;28;20234;-92
2023/10/22 07:20:08;;;;;;;7.83;2.47;;;;;;;24.92;57.53;98959.53;4990513;28;20613;-89
2023/10/22 07:22:34;;;;;;;6.23;2.63;;;;;;;24.89;56.91;98972.47;4999000;28;20195;-91
2023/10/22 07:24:59;;;;;;;9.77;2.83;;;;;;;24.67;57.08;98957.97;4984781;28;20191;-88
2023/10/22 07:27:25;;;;;;;7.60;2.57;;;;;;;24.69;57.40;98950.56;5014423;28;20605;-90
2023/10/22 07:29:50;;;;;;;6.20;2.30;;;;;;;24.87;56.96;98951.19;4998307;28;20620;-87
2023/10/22 07:32:15;;;;;;;8.93;2.97;;;;;;;24.91;56.79;98951.69;5014759;28;20187;-87
2023/10/22 07:34:41;;;;;;;5.30;2.23;;;;;;;24.87;56.99;98948.50;5015181;28;20171;-88
2023/10/22 07:37:06;;;;;;;6.73;2.60;;;;;;;24.99;56.77;98957.84;5015084;28;20211;-86
2023/10/22 07:39:32;;;;;;;7.83;2.37;;;;;;;25.08;56.56;98947.06;5014851;28;20178;-88
2023/10/22 07:41:59;;;;;;;7.23;2.83;;;;;;;25.23;55.98;98943.44;4997788;28;20185;-87
2023/10/22 07:44:25;;;;;;;4.93;2.17;;;;;;;25.36;55.37;98948.22;5007722;28;20213;-89
2023/10/22 07:46:50;;;;;;;6.73;2.40;;;;;;;25.53;55.12;98949.78;5008370;28;20187;-92
2023/10/22 07:49:17;;;;;;;5.07;1.90;;;;;;;25.50;53.70;98960.88;4997352;28;20548;-90
2023/10/22 07:51:42;;;;;;;9.47;2.30;;;;;;;25.48;54.07;98954.84;4997891;28;20604;-90
2023/10/22 07:54:08;;;;;;;5.30;2.03;;;;;;;25.52;53.81;98948.13;5013245;28;20246;-90
2023/10/22 07:56:34;;;;;;;14.20;3.00;;;;;;;25.55;53.91;98953.97;5013977;28;20616;-90
2023/10/22 07:58:59;;;;;;;5.63;2.07;;;;;;;25.54;53.64;98954.16;5013812;28;20656;-91
2023/10/22 08:01:25;;;;;;;6.63;2.83;;;;;;;25.55;53.84;98963.88;5011446;28;20632;-91
2023/10/22 08:03:51;;;;;;;6.40;2.53;;;;;;;25.47;53.80;98958.56;5010223;28;20273;-90
2023/10/22 08:06:17;;;;;;;6.97;1.97;;;;;;;25.52;53.88;98957.00;5013776;28;20265;-92
2023/10/22 08:08:42;;;;;;;9.93;2.67;;;;;;;25.64;53.55;98952.88;5014643;28;20179;-92
2023/10/22 08:11:15;;;;;;;10.90;3.87;;;;;;;25.70;52.89;98956.72;5017200;28;20288;-92
2023/10/22 08:13:40;;;;;;;11.83;3.23;;;;;;;25.73;52.99;98955.50;5035042;28;20607;-90
2023/10/22 08:16:06;;;;;;;16.08;3.08;;;;;;;25.88;52.38;98959.91;5024998;28;20381;-90
2023/10/22 08:18:32;;;;;;;8.23;2.37;;;;;;;25.88;52.49;98954.53;4987427;28;20199;-89
2023/10/22 08:21:03;;;;;;;6.93;1.95;;;;;;;26.12;52.18;98954.34;5005089;28;20179;-91
2023/10/22 08:23:29;;;;;;;5.63;2.22;;;;;;;26.15;51.64;98962.00;4997593;28;20610;-89
2023/10/22 08:25:55;;;;;;;19.85;6.95;;;;;;;26.17;51.30;98956.47;5014267;28;20258;-90
2023/10/22 08:28:20;;;;;;;12.07;4.80;;;;;;;26.25;51.18;98956.38;5014207;28;20233;-90
2023/10/22 08:30:46;;;;;;;11.43;4.63;;;;;;;26.34;50.46;98952.56;4997059;28;20183;-89
2023/10/22 08:33:13;;;;;;;17.23;5.40;;;;;;;26.39;49.90;98943.97;5013816;28;20178;-91
2023/10/22 08:35:38;;;;;;;5.47;2.08;;;;;;;26.46;49.36;98942.19;4996945;28;20183;-92
2023/10/22 08:38:03;;;;;;;9.25;2.83;;;;;;;26.39;49.72;98944.78;4997110;28;20241;-92
2023/10/22 08:40:29;;;;;;;6.50;2.40;;;;;;;26.47;49.14;98946.53;5014393;28;20179;-89
2023/10/22 08:43:00;;;;;;;8.65;3.13;;;;;;;26.57;49.54;98945.22;4990363;28;20185;-90
2023/10/22 08:45:28;;;;;;;11.25;2.83;;;;;;;26.58;48.94;98946.06;5006248;28;20189;-93
2023/10/22 08:48:11;;;;;;;7.40;2.78;;;;;;;26.68;49.36;98952.00;4997271;28;20182;-93
2023/10/22 08:50:37;;;;;;;7.53;2.88;;;;;;;26.88;48.89;98947.75;5009892;28;20253;-90
2023/10/22 08:53:06;;;;;;;9.73;2.10;;;;;;;27.08;48.83;98954.19;4996598;28;20200;-93
2023/10/22 08:55:32;;;;;;;8.10;2.20;;;;;;;27.25;47.67;98957.47;4983316;28;20192;-90
2023/10/22 08:58:00;;;;;;;10.20;3.03;;;;;;;27.63;47.49;98966.16;4996743;28;20211;-93
2023/10/22 09:00:30;;;;;;;5.68;1.85;;;;;;;27.89;46.34;98969.91;4998299;28;20188;-92
2023/10/22 09:02:56;;;;;;;8.38;1.63;;;;;;;28.02;45.88;98963.84;4996682;28;20688;-92
2023/10/22 09:05:24;;;;;;;4.90;2.08;;;;;;;28.28;45.07;98968.56;4996564;28;20265;-94
2023/10/22 09:07:54;;;;;;;7.13;2.58;;;;;;;28.47;44.86;98970.56;4998052;28;20614;-91
2023/10/22 09:10:48;;;;;;;9.65;2.63;;;;;;;28.74;44.36;98952.69;4978948;28;20199;-89
2023/10/22 09:13:15;;;;;;;8.65;2.47;;;;;;;28.90;43.51;98955.91;4997027;28;20287;-92
2023/10/22 09:15:46;;;;;;;8.35;2.78;;;;;;;29.19;42.70;98947.44;5006955;28;20191;-90
2023/10/22 09:18:12;;;;;;;11.20;2.63;;;;;;;29.29;42.16;98941.72;4996520;28;20194;-91
2023/10/22 09:20:38;;;;;;;10.07;2.42;;;;;;;29.49;41.30;98939.88;4996041;28;20183;-89
2023/10/22 09:23:20;;;;;;;5.22;1.85;;;;;;;29.58;41.56;98921.59;5013494;28;20692;-92
2023/10/22 09:25:50;;;;;;;10.82;1.90;;;;;;;29.70;40.49;98928.88;5012980;28;20181;-88
2023/10/22 09:28:21;;;;;;;5.85;1.70;;;;;;;29.89;40.23;98921.84;4996097;28;20179;-91
2023/10/22 09:30:57;;;;;;;8.25;1.80;;;;;;;30.07;40.07;98922.03;4994315;28;20194;-89
2023/10/22 09:33:37;;;;;;;9.18;2.17;;;;;;;30.00;39.22;98923.91;4992347;28;20274;-90
2023/10/22 09:36:10;;;;;;;6.40;1.50;;;;;;;30.00;38.90;98929.31;5013255;28;20200;-91
2023/10/22 09:38:49;;;;;;;5.15;1.60;;;;;;;30.04;39.12;98927.00;5013267;28;20581;-91
2023/10/22 09:41:35;;;;;;;6.68;1.45;;;;;;;30.07;39.31;98934.69;4996402;28;20270;-88
2023/10/22 09:44:18;;;;;;;8.93;2.17;;;;;;;30.02;38.83;98934.50;5012845;28;20735;-88
2023/10/22 09:46:44;;;;;;;5.90;1.70;;;;;;;30.29;38.55;98928.03;5017172;28;20185;-89
2023/10/22 09:49:50;;;;;;;11.82;1.77;;;;;;;30.51;39.01;98915.91;4999989;28;20600;-89
2023/10/22 09:52:17;;;;;;;7.82;1.60;;;;;;;30.52;38.18;98916.75;5009593;28;20249;-89
2023/10/22 09:54:44;;;;;;;4.85;1.88;;;;;;;30.43;38.22;98908.84;5016863;28;20241;-88
2023/10/22 09:57:17;;;;;;;4.95;1.25;;;;;;;30.62;38.05;98901.72;5000728;28;20211;-90
2023/10/22 09:59:45;;;;;;;8.23;1.52;;;;;;;30.92;37.40;98910.16;5000539;28;20241;-92
2023/10/22 10:02:15;;;;;;;11.32;2.15;;;;;;;31.10;37.28;98894.03;4998368;28;20582;-90
2023/10/22 10:04:43;;;;;;;9.02;2.30;;;;;;;31.30;36.95;98888.47;5007727;28;20180;-91
2023/10/22 10:07:09;;;;;;;2.78;1.75;;;;;;;31.43;36.86;98885.66;5004111;28;20205;-89
2023/10/22 10:09:35;;;;;;;8.95;1.92;;;;;;;31.34;37.20;98889.69;5015920;28;20198;-88
2023/10/22 10:12:14;;;;;;;2.72;1.25;;;;;;;31.43;37.31;98893.78;5017551;28;20189;-91
2023/10/22 10:15:33;;;;;;;11.68;2.33;;;;;;;31.49;36.46;98882.94;5007101;28;20174;-88
2023/10/22 10:18:22;;;;;;;6.32;1.80;;;;;;;31.48;36.36;98875.03;5012666;28;20218;-92
2023/10/22 10:20:59;;;;;;;;;;;;;;;;;;;;;
2023/10/22 10:23:34;;;;;;;6.68;1.83;;;;;;;31.31;36.15;98873.88;5020383;28;20185;-94
2023/10/22 10:26:28;;;;;;;10.10;1.88;;;;;;;31.39;35.72;98866.31;5013715;28;20543;-88
2023/10/22 10:29:04;;;;;;;7.63;1.90;;;;;;;31.51;35.55;98863.75;5016105;28;20187;-90
2023/10/22 10:32:16;;;;;;;11.15;2.65;;;;;;;31.53;35.58;98857.06;5016185;28;20193;-91
2023/10/22 10:34:43;;;;;;;9.52;2.28;;;;;;;31.68;35.48;98847.78;5012941;28;20175;-88
2023/10/22 10:37:11;;;;;;;8.13;2.03;;;;;;;31.92;34.91;98852.34;5015656;28;20203;-87
2023/10/22 10:42:58;;;;;;;5.07;1.55;;;;;;;32.02;35.39;98837.22;5015766;28;20175;-89
2023/10/22 10:46:00;;;;;;;5.78;1.73;;;;;;;31.93;35.72;98830.41;5014772;28;20175;-93
2023/10/22 10:48:47;;;;;;;4.70;1.30;;;;;;;31.93;34.23;98824.16;5014934;28;20697;-89
2023/10/22 10:51:24;;;;;;;4.13;2.03;;;;;;;31.94;34.62;98825.81;4996243;28;20192;-90
2023/10/22 10:54:04;;;;;;;6.90;1.73;;;;;;;31.94;34.80;98818.53;5005477;28;20261;-89
2023/10/22 10:56:49;;;;;;;7.65;2.20;;;;;;;31.79;34.71;98820.75;5008625;28;20183;-89
2023/10/22 10:59:30;;;;;;;7.80;1.73;;;;;;;31.41;35.11;98814.63;5015442;28;20167;-88
2023/10/22 11:02:32;;;;;;;6.00;1.58;;;;;;;31.28;35.39;98814.72;4997636;28;20199;-91
2023/10/22 11:04:58;;;;;;;10.07;1.85;;;;;;;31.35;35.63;98807.38;4959430;28;20225;-87
2023/10/22 11:07:32;;;;;;;7.00;1.55;;;;;;;31.19;35.81;98805.19;4991959;28;20211;-92
2023/10/22 11:09:58;;;;;;;5.63;1.80;;;;;;;31.10;35.66;98796.53;5001048;28;20205;-87
2023/10/22 11:12:24;;;;;;;10.55;2.22;;;;;;;30.99;35.99;98798.06;5015386;28;20179;-89
2023/10/22 11:14:57;;;;;;;5.35;1.48;;;;;;;30.68;36.46;98803.47;4987142;28;20191;-90
2023/10/22 11:17:30;;;;;;;6.28;1.98;;;;;;;30.56;37.03;98799.75;5015409;28;20695;-90
2023/10/22 11:19:56;;;;;;;9.35;1.75;;;;;;;30.00;36.91;98798.72;4998508;28;20182;-91
2023/10/22 11:22:22;;;;;;;5.85;1.90;;;;;;;29.79;37.85;98794.41;4998215;28;20175;-88
2023/10/22 11:25:02;;;;;;;9.38;2.03;;;;;;;29.95;38.14;98796.69;4997960;28;20651;-89
2023/10/22 11:27:31;;;;;;;8.13;2.03;;;;;;;30.22;38.04;98792.81;5014328;28;20171;-91
2023/10/22 11:30:00;;;;;;;5.28;1.65;;;;;;;30.38;37.88;98794.22;4998031;28;20179;-90
2023/10/22 11:32:28;;;;;;;5.35;1.63;;;;;;;30.24;38.19;98793.44;4994390;28;20199;-89
2023/10/22 11:34:56;;;;;;;5.25;1.73;;;;;;;30.36;37.97;98793.63;4978570;28;20231;-90
2023/10/22 11:37:54;;;;;;;8.38;1.58;;;;;;;30.32;38.50;98789.69;4993553;28;20199;-87
2023/10/22 11:40:34;;;;;;;4.38;1.98;;;;;;;29.98;38.85;98795.41;5013338;28;20261;-88
2023/10/22 11:43:04;;;;;;;5.60;1.77;;;;;;;29.78;39.10;98798.13;4997834;28;20202;-88